Time;durP1;ratioP1;P1;durP2;ratioP2;P2;SDS_P1;SDS_P2;PMS_P1;PMS_P2;Temp;Humidity;BMP_temperature;BMP_pressure;BME280_temperature;BME280_humidity;BME280_pressure;Samples;Min_cycle;Max_cycle;Signal;HPM_P1;HPM_P2
2023/12/07 00:01:54;;;;;;;;;38.00;33.25;;;;;6.28;80.33;101279.38;5086348;28;45318;-84
2023/12/07 00:04:19;;;;;;;;;41.50;34.25;;;;;6.32;79.91;101281.00;5083682;27;45375;-85
2023/12/07 00:06:44;;;;;;;;;37.75;28.75;;;;;6.36;79.94;101284.41;5065448;28;60996;-89
2023/12/07 00:09:10;;;;;;;;;31.75;22.00;;;;;6.32;79.86;101286.28;5061792;28;57792;-88
2023/12/07 00:11:35;;;;;;;;;45.25;32.00;;;;;6.21;79.94;101283.06;5084656;28;45507;-86
2023/12/07 00:14:00;;;;;;;;;44.75;36.75;;;;;6.17;80.07;101268.22;5084549;28;46156;-88
2023/12/07 00:16:26;;;;;;;;;36.00;27.50;;;;;6.16;79.46;101269.13;5085845;28;45317;-88
2023/12/07 00:18:51;;;;;;;;;40.50;33.25;;;;;6.19;79.39;101269.91;5074095;27;45505;-82
2023/12/07 00:21:16;;;;;;;;;35.75;33.00;;;;;6.07;79.46;101266.72;5054860;28;44852;-86
2023/12/07 00:23:42;;;;;;;;;40.25;32.00;;;;;5.96;79.37;101245.03;5051342;28;51512;-81
2023/12/07 00:26:07;;;;;;;;;38.50;31.50;;;;;5.95;80.30;101253.84;5070774;28;44927;-90
2023/12/07 00:28:32;;;;;;;;;48.00;38.25;;;;;5.91;80.77;101248.66;5082411;28;45524;-91
2023/12/07 00:30:57;;;;;;;;;38.25;31.75;;;;;5.88;80.87;101242.56;5090896;27;45353;-91
2023/12/07 00:33:23;;;;;;;;;36.25;31.75;;;;;5.83;79.98;101232.09;5071651;28;45470;-91
2023/12/07 00:35:49;;;;;;;;;37.00;30.25;;;;;5.80;81.06;101234.84;5071677;27;53326;-93
2023/12/07 00:38:15;;;;;;;;;27.25;24.75;;;;;5.79;80.55;101240.16;5053399;28;45211;-91
2023/12/07 00:40:40;;;;;;;;;40.00;37.50;;;;;5.79;80.18;101238.38;5085214;27;45267;-93
2023/12/07 00:43:07;;;;;;;;;32.25;27.25;;;;;5.79;81.00;101245.44;5087736;28;45288;-86
2023/12/07 00:45:32;;;;;;;;;49.50;36.00;;;;;5.77;80.64;101245.47;5086015;28;45405;-95
2023/12/07 00:47:57;;;;;;;;;46.75;32.25;;;;;5.71;80.43;101248.25;5066266;28;45282;-94
2023/12/07 00:50:23;;;;;;;;;39.00;34.00;;;;;5.71;80.37;101250.91;5070648;28;44893;-91
2023/12/07 00:52:48;;;;;;;;;32.75;30.00;;;;;5.71;81.22;101256.19;5078887;28;48146;-87
2023/12/07 00:55:13;;;;;;;;;35.25;31.50;;;;;5.74;81.30;101253.50;5093038;27;45308;-83
2023/12/07 00:57:40;;;;;;;;;38.25;29.75;;;;;5.74;80.41;101250.84;5098579;27;44784;-81
2023/12/07 01:00:06;;;;;;;;;31.00;27.00;;;;;5.69;80.35;101247.44;5093796;27;45350;-88
2023/12/07 01:02:31;;;;;;;;;28.25;27.75;;;;;5.64;80.44;101249.34;5090933;27;45394;-91
2023/12/07 01:04:58;;;;;;;;;36.00;29.25;;;;;5.57;80.63;101259.16;5078663;28;44814;-85
2023/12/07 01:07:23;;;;;;;;;34.50;28.50;;;;;5.50;81.59;101249.69;5067029;28;45288;-88
2023/12/07 01:09:50;;;;;;;;;34.75;33.25;;;;;5.44;81.19;101241.03;5075636;27;45196;-82
2023/12/07 01:12:15;;;;;;;;;29.75;28.50;;;;;5.57;81.88;101253.88;5074847;28;46283;-81
2023/12/07 01:14:41;;;;;;;;;33.00;19.00;;;;;5.50;81.93;101252.31;5080268;28;45314;-87
2023/12/07 01:17:06;;;;;;;;;35.50;26.25;;;;;5.39;82.40;101258.75;5071170;28;45266;-84
2023/12/07 01:19:31;;;;;;;;;28.25;20.75;;;;;5.26;82.71;101259.06;5072227;28;45363;-86
2023/12/07 01:21:57;;;;;;;;;38.25;30.75;;;;;5.32;82.57;101265.94;5066404;28;63735;-86
2023/12/07 01:24:22;;;;;;;;;29.25;26.75;;;;;5.35;82.61;101249.19;5072858;28;63324;-89
2023/12/07 01:26:49;;;;;;;;;30.00;22.50;;;;;5.34;82.43;101248.34;5089515;28;45177;-88
2023/12/07 01:29:14;;;;;;;;;28.00;22.50;;;;;5.31;82.79;101249.25;5076272;28;45323;-92
2023/12/07 01:31:40;;;;;;;;;34.50;29.75;;;;;5.36;83.00;101243.03;5070638;28;47153;-87
2023/12/07 01:34:09;;;;;;;;;31.25;29.75;;;;;5.40;81.97;101240.25;5054656;28;45419;-92
2023/12/07 01:36:35;;;;;;;;;32.75;27.25;;;;;5.29;82.91;101218.53;5073179;28;44706;-90
2023/12/07 01:39:01;;;;;;;;;33.00;23.75;;;;;5.36;82.70;101224.56;5080792;27;45298;-93
2023/12/07 01:41:26;;;;;;;;;29.25;26.50;;;;;5.43;82.20;101234.03;5094906;28;46061;-93
2023/12/07 01:43:51;;;;;;;;;26.50;25.50;;;;;5.50;81.85;101244.41;5086686;27;44792;-84
2023/12/07 01:46:17;;;;;;;;;26.25;24.00;;;;;5.52;82.57;101228.53;5070140;28;45722;-80
2023/12/07 01:48:43;;;;;;;;;32.25;28.25;;;;;5.56;81.52;101232.81;5070965;27;45367;-81
2023/12/07 01:51:11;;;;;;;;;34.75;29.50;;;;;5.57;81.84;101237.19;5067490;28;45331;-80
2023/12/07 01:53:38;;;;;;;;;35.25;33.00;;;;;5.49;82.04;101232.13;5047229;28;44764;-85
2023/12/07 01:56:05;;;;;;;;;27.00;24.00;;;;;5.49;82.23;101231.25;5064534;28;45325;-86
2023/12/07 01:58:30;;;;;;;;;33.50;32.00;;;;;5.52;81.75;101239.97;5070203;28;45217;-87
2023/12/07 02:00:56;;;;;;;;;34.00;30.25;;;;;5.51;82.04;101229.44;5088101;27;46180;-82
2023/12/07 02:03:23;;;;;;;;;37.25;27.75;;;;;5.48;81.67;101233.03;5085917;28;45334;-86
2023/12/07 02:05:49;;;;;;;;;33.75;26.00;;;;;5.52;82.28;101239.09;5087487;28;44760;-86
2023/12/07 02:08:15;;;;;;;;;36.25;28.50;;;;;5.56;81.57;101243.38;5086103;27;45398;-85
2023/12/07 02:10:41;;;;;;;;;34.75;27.75;;;;;5.53;81.82;101246.09;5088218;28;46338;-80
2023/12/07 02:13:07;;;;;;;;;33.50;25.50;;;;;5.53;81.91;101240.81;5082215;27;45351;-81
2023/12/07 02:15:33;;;;;;;;;40.00;29.25;;;;;5.45;81.29;101217.25;5083520;28;45355;-85
2023/12/07 02:18:19;;;;;;;;;30.00;28.25;;;;;5.41;82.09;101231.44;5068780;27;45477;-84
2023/12/07 02:21:12;;;;;;;;;40.00;27.75;;;;;5.41;81.81;101214.75;5086233;28;45258;-83
2023/12/07 02:23:39;;;;;;;;;31.50;26.00;;;;;5.41;82.38;101198.91;5084067;28;45370;-84
2023/12/07 02:26:07;;;;;;;;;33.75;26.00;;;;;5.45;82.13;101203.19;5083438;27;45331;-83
2023/12/07 02:28:32;;;;;;;;;26.50;23.75;;;;;5.47;82.70;101204.03;5085646;27;45216;-81
2023/12/07 02:30:58;;;;;;;;;26.75;22.75;;;;;5.44;81.83;101189.16;5070968;28;45498;-83
2023/12/07 02:33:23;;;;;;;;;30.25;26.50;;;;;5.47;82.17;101189.09;5071703;28;52414;-88
2023/12/07 02:35:48;;;;;;;;;32.50;27.25;;;;;5.50;81.41;101190.78;5052255;28;45912;-87
2023/12/07 02:38:15;;;;;;;;;27.00;23.75;;;;;5.54;81.66;101201.19;5072525;27;45319;-81
2023/12/07 02:40:43;;;;;;;;;28.00;24.00;;;;;5.31;82.29;101172.75;5077609;27;47006;-80
2023/12/07 02:43:09;;;;;;;;;30.00;25.50;;;;;5.48;81.60;101189.97;5075034;28;45161;-83
2023/12/07 02:45:34;;;;;;;;;33.50;29.75;;;;;5.46;81.53;101192.59;5067992;28;45327;-83
2023/12/07 02:47:59;;;;;;;;;27.50;25.00;;;;;5.43;81.64;101203.25;5064594;28;45177;-87
2023/12/07 02:50:25;;;;;;;;;32.00;29.50;;;;;5.44;81.91;101199.69;5082538;27;46340;-89
2023/12/07 02:52:50;;;;;;;;;35.00;25.50;;;;;5.43;82.11;101212.94;5065591;28;45907;-86
2023/12/07 02:55:15;;;;;;;;;39.25;29.25;;;;;5.40;82.20;101202.47;5085892;28;45347;-84
2023/12/07 02:57:41;;;;;;;;;33.75;26.00;;;;;5.42;81.64;101219.09;5087974;28;45216;-87
2023/12/07 03:00:07;;;;;;;;;27.50;21.75;;;;;5.41;81.55;101226.16;5065842;28;48489;-89
2023/12/07 03:02:37;;;;;;;;;33.75;26.75;;;;;5.38;81.67;101217.47;5088361;28;45153;-94
2023/12/07 03:05:03;;;;;;;;;35.75;29.50;;;;;5.44;82.45;101222.56;5087694;28;45334;-87
2023/12/07 03:07:29;;;;;;;;;26.75;25.50;;;;;5.42;82.33;101240.22;5090875;28;44863;-90
2023/12/07 03:09:54;;;;;;;;;28.75;22.75;;;;;5.42;82.60;101225.25;5090209;28;45165;-87
2023/12/07 03:12:19;;;;;;;;;31.00;25.75;;;;;5.41;81.95;101205.06;5084717;27;45283;-85
2023/12/07 03:14:45;;;;;;;;;26.50;23.00;;;;;5.36;82.31;101169.16;5074698;28;45245;-86
2023/12/07 03:17:10;;;;;;;;;37.75;28.25;;;;;5.36;81.77;101140.16;5062660;28;45213;-86
2023/12/07 03:19:39;;;;;;;;;27.25;26.00;;;;;5.31;81.86;101120.00;5077633;28;46225;-87
2023/12/07 03:22:06;;;;;;;;;27.50;22.00;;;;;5.32;81.58;101119.09;5090645;27;45576;-86
2023/12/07 03:24:32;;;;;;;;;30.00;23.75;;;;;5.32;81.72;101116.47;5072684;28;44780;-90
2023/12/07 03:27:02;;;;;;;;;35.25;28.00;;;;;5.29;81.83;101106.00;5087546;28;45583;-86
2023/12/07 03:29:32;;;;;;;;;26.25;23.75;;;;;5.18;82.46;101096.63;5090870;28;45294;-84
2023/12/07 03:31:57;;;;;;;;;32.25;25.75;;;;;5.16;81.97;101101.09;5086673;28;45582;-87
2023/12/07 03:34:24;;;;;;;;;27.25;26.00;;;;;5.25;82.62;101127.25;5072361;28;45268;-90
2023/12/07 03:36:49;;;;;;;;;29.50;22.50;;;;;5.26;82.78;101135.09;5077669;28;44927;-83
2023/12/07 03:39:21;;;;;;;;;32.00;25.50;;;;;5.25;82.83;101150.97;5077863;27;45843;-85
2023/12/07 03:41:46;;;;;;;;;24.75;20.75;;;;;5.25;82.54;101159.75;5079502;27;44896;-80
2023/12/07 03:44:12;;;;;;;;;27.50;22.75;;;;;5.22;82.86;101146.66;5097223;28;44710;-89
2023/12/07 03:46:37;;;;;;;;;23.25;21.00;;;;;5.20;82.30;101129.97;5094917;27;45615;-83
2023/12/07 03:49:02;;;;;;;;;27.75;26.50;;;;;5.17;81.98;101126.56;5091312;27;53784;-89
2023/12/07 03:51:28;;;;;;;;;25.50;23.00;;;;;5.25;82.76;101141.28;5067736;28;45659;-85
2023/12/07 03:53:56;;;;;;;;;21.50;16.50;;;;;5.27;82.25;101147.38;5066777;28;45296;-91
2023/12/07 03:56:26;;;;;;;;;31.50;24.25;;;;;5.26;82.82;101136.88;5087123;28;44770;-92
2023/12/07 03:58:52;;;;;;;;;25.25;21.50;;;;;5.26;82.74;101127.19;5068451;28;45663;-81
2023/12/07 04:01:17;;;;;;;;;22.75;19.25;;;;;5.30;82.81;101120.06;5077521;28;44812;-81
2023/12/07 04:03:43;;;;;;;;;21.50;21.00;;;;;5.33;82.51;101123.47;5095069;28;45292;-86
2023/12/07 04:06:08;;;;;;;;;29.75;23.00;;;;;5.31;82.76;101119.16;5096688;28;45545;-89
2023/12/07 04:08:34;;;;;;;;;18.25;15.25;;;;;5.38;82.31;101135.69;5089347;28;46308;-88
2023/12/07 04:11:00;;;;;;;;;26.25;24.00;;;;;5.39;81.71;101126.88;5094723;27;44776;-84
2023/12/07 04:13:25;;;;;;;;;27.00;21.50;;;;;5.39;82.66;101118.97;5069738;28;45262;-88
2023/12/07 04:15:52;;;;;;;;;26.00;23.50;;;;;5.40;82.46;101140.03;5073115;28;45026;-83
2023/12/07 04:18:18;;;;;;;;;26.75;23.00;;;;;5.34;82.74;101161.28;5082322;27;45400;-81
2023/12/07 04:20:44;;;;;;;;;35.00;24.00;;;;;5.25;82.76;101172.94;5099323;28;45393;-81
2023/12/07 04:23:09;;;;;;;;;27.75;21.25;;;;;5.19;83.54;101180.09;5097099;27;45091;-84
2023/12/07 04:25:34;;;;;;;;;26.75;22.75;;;;;5.16;83.29;101157.31;5098067;28;45302;-81
2023/12/07 04:28:00;;;;;;;;;30.50;25.25;;;;;5.16;83.22;101157.31;5093539;28;45417;-82
2023/12/07 04:30:25;;;;;;;;;28.25;22.00;;;;;5.03;83.13;101140.94;5094866;28;44709;-91
2023/12/07 04:32:51;;;;;;;;;28.75;22.25;;;;;5.15;83.43;101155.59;5081040;27;44729;-87
2023/12/07 04:35:16;;;;;;;;;31.75;19.25;;;;;5.22;83.06;101145.78;5063444;28;44780;-91
2023/12/07 04:37:41;;;;;;;;;28.75;22.25;;;;;5.19;83.34;101136.16;5083089;28;45212;-92
2023/12/07 04:40:07;;;;;;;;;23.50;19.75;;;;;5.26;82.65;101131.59;5102036;27;52660;-85
2023/12/07 04:42:33;;;;;;;;;27.00;21.25;;;;;5.33;82.44;101133.16;5108679;27;45343;-82
2023/12/07 04:45:04;;;;;;;;;18.75;18.75;;;;;5.35;83.31;101125.25;5109875;27;44666;-80
2023/12/07 04:47:30;;;;;;;;;20.75;15.00;;;;;5.39;82.90;101121.59;5108763;27;45323;-81
2023/12/07 04:49:56;;;;;;;;;17.50;17.50;;;;;5.29;82.95;101129.75;5106248;27;44718;-80
2023/12/07 04:52:22;;;;;;;;;20.75;17.50;;;;;5.31;82.44;101124.44;5104249;28;44761;-81
2023/12/07 04:54:49;;;;;;;;;20.25;16.00;;;;;5.25;82.34;101098.22;5102705;28;44708;-91
2023/12/07 04:57:18;;;;;;;;;26.75;20.50;;;;;5.31;82.92;101108.59;5101095;28;45103;-92
2023/12/07 04:59:46;;;;;;;;;23.50;21.25;;;;;5.38;82.36;101109.31;5097470;28;44824;-82
2023/12/07 05:02:14;;;;;;;;;16.50;14.25;;;;;5.31;81.55;101098.06;5088015;27;44946;-88
2023/12/07 05:04:40;;;;;;;;;20.25;18.25;;;;;5.32;82.03;101090.09;5058750;28;44927;-92
2023/12/07 05:07:05;;;;;;;;;22.00;21.00;;;;;5.30;81.89;101093.69;5060295;28;45343;-91
2023/12/07 05:09:31;;;;;;;;;24.75;18.50;;;;;5.30;81.33;101086.63;5075891;28;44734;-91
2023/12/07 05:11:58;;;;;;;;;26.00;18.00;;;;;5.30;82.50;101070.81;5077117;28;45220;-91
2023/12/07 05:14:23;;;;;;;;;19.00;17.25;;;;;5.37;81.50;101070.66;5085464;28;44826;-80
2023/12/07 05:16:52;;;;;;;;;25.00;18.75;;;;;5.37;81.96;101060.13;5079548;28;45193;-81
2023/12/07 05:19:19;;;;;;;;;22.50;20.75;;;;;5.38;82.10;101061.84;5079808;27;45307;-85
2023/12/07 05:21:45;;;;;;;;;22.00;19.50;;;;;5.38;81.10;101056.56;5072964;28;45259;-88
2023/12/07 05:24:15;;;;;;;;;18.25;18.25;;;;;5.38;80.62;101051.28;5095652;28;44788;-84
2023/12/07 05:26:50;;;;;;;;;17.25;17.25;;;;;5.35;81.36;101056.66;5095168;27;45321;-80
2023/12/07 05:29:15;;;;;;;;;20.00;18.75;;;;;5.36;81.51;101058.38;5088170;27;45372;-80
2023/12/07 05:31:41;;;;;;;;;20.25;17.00;;;;;5.38;81.09;101056.56;5074315;27;54174;-85
2023/12/07 05:34:08;;;;;;;;;20.50;17.50;;;;;5.41;81.29;101067.03;5057650;28;44819;-86
2023/12/07 05:36:37;;;;;;;;;17.00;17.00;;;;;5.28;80.12;101046.25;5041520;28;45366;-86
2023/12/07 05:39:02;;;;;;;;;25.75;18.00;;;;;5.39;79.67;101082.03;5058633;28;44765;-88
2023/12/07 05:41:28;;;;;;;;;13.50;13.00;;;;;5.26;80.48;101082.38;5070285;28;45740;-87
2023/12/07 05:43:54;;;;;;;;;21.50;18.00;;;;;5.25;80.02;101085.91;5072373;28;45358;-81
2023/12/07 05:46:19;;;;;;;;;23.00;21.50;;;;;5.27;81.07;101092.00;5074736;28;46143;-81
2023/12/07 05:48:45;;;;;;;;;22.75;20.75;;;;;5.32;80.13;101089.22;5073962;28;45500;-81
2023/12/07 05:51:20;;;;;;;;;22.50;20.75;;;;;5.36;80.54;101080.34;5072001;28;45463;-85
2023/12/07 05:53:46;;;;;;;;;23.75;23.75;;;;;5.38;79.62;101072.41;5071053;28;45290;-83
2023/12/07 05:56:11;;;;;;;;;32.75;22.75;;;;;5.41;80.38;101067.03;5070598;28;45375;-81
2023/12/07 05:58:39;;;;;;;;;23.00;19.00;;;;;5.50;80.29;101062.38;5070205;28;45367;-81
2023/12/07 06:01:08;;;;;;;;;23.50;18.50;;;;;5.53;79.24;101070.19;5054946;28;45626;-80
2023/12/07 06:03:35;;;;;;;;;27.75;20.75;;;;;5.57;79.31;101068.34;5073765;27;45234;-82
2023/12/07 06:06:00;;;;;;;;;22.00;20.75;;;;;5.58;79.57;101059.50;5088507;27;45377;-81
2023/12/07 06:08:26;;;;;;;;;21.00;17.00;;;;;5.61;78.91;101062.09;5088252;27;45460;-80
2023/12/07 06:10:52;;;;;;;;;22.00;21.25;;;;;5.64;78.97;101056.72;5090282;28;44828;-84
2023/12/07 06:13:18;;;;;;;;;25.00;22.25;;;;;5.67;79.39;101056.63;5071636;28;45306;-80
2023/12/07 06:15:46;;;;;;;;;19.50;17.00;;;;;5.66;79.39;101057.53;5073948;28;46048;-81
2023/12/07 06:18:13;;;;;;;;;17.25;16.75;;;;;5.59;78.80;101071.78;5069814;27;45231;-82
2023/12/07 06:20:39;;;;;;;;;25.50;21.25;;;;;5.56;78.62;101066.59;5086404;27;45281;-82
2023/12/07 06:23:12;;;;;;;;;17.25;14.50;;;;;5.54;78.60;101063.16;5084039;28;45402;-80
2023/12/07 06:25:40;;;;;;;;;18.25;14.50;;;;;5.46;78.58;101065.13;5076154;28;45208;-80
2023/12/07 06:28:11;;;;;;;;;25.50;21.50;;;;;5.37;78.84;101058.34;5041204;28;45302;-81
2023/12/07 06:30:36;;;;;;;;;22.50;18.75;;;;;5.28;79.15;101053.31;5096351;28;45227;-81
2023/12/07 06:33:03;;;;;;;;;16.50;13.00;;;;;5.26;79.42;101037.53;5095691;28;45202;-80
2023/12/07 06:35:30;;;;;;;;;28.50;19.25;;;;;5.14;80.18;101024.69;5088680;27;46227;-87
2023/12/07 06:38:33;;;;;;;;;27.00;20.50;;;;;5.19;80.32;101025.41;5099355;27;44803;-86
2023/12/07 06:41:00;;;;;;;;;23.75;18.75;;;;;5.22;80.11;101025.34;5077682;28;45157;-83
2023/12/07 06:43:25;;;;;;;;;22.00;16.50;;;;;5.36;79.70;101026.75;5082831;28;45311;-89
2023/12/07 06:45:51;;;;;;;;;18.00;15.50;;;;;5.39;79.79;101029.28;5089462;28;45132;-86
2023/12/07 06:48:16;;;;;;;;;19.75;18.50;;;;;5.40;79.85;101017.81;5082725;27;45518;-88
2023/12/07 06:50:42;;;;;;;;;21.25;17.25;;;;;5.38;79.66;101014.38;5075488;27;50920;-88
2023/12/07 06:53:07;;;;;;;;;24.50;21.50;;;;;5.25;80.03;101000.66;5088884;27;44790;-91
2023/12/07 06:55:32;;;;;;;;;15.25;15.25;;;;;5.41;79.36;101019.56;5088251;28;51901;-93
2023/12/07 06:57:58;;;;;;;;;19.75;18.00;;;;;5.44;79.15;101008.91;5085427;27;45576;-90
2023/12/07 07:00:27;;;;;;;;;21.75;17.75;;;;;5.44;78.67;101014.19;5094568;27;45326;-93
2023/12/07 07:02:52;;;;;;;;;22.00;18.50;;;;;5.41;78.64;101014.28;5071917;28;45344;-84
2023/12/07 07:05:17;;;;;;;;;17.00;17.00;;;;;5.26;78.75;100997.13;5081756;27;46278;-86
2023/12/07 07:07:44;;;;;;;;;17.25;16.00;;;;;5.15;79.61;100978.94;5069268;27;44635;-91
2023/12/07 07:10:10;;;;;;;;;20.25;18.75;;;;;5.37;79.64;101008.22;5091405;27;45534;-88
2023/12/07 07:12:35;;;;;;;;;19.25;19.25;;;;;5.28;79.52;101005.84;5047608;28;45275;-83
2023/12/07 07:15:01;;;;;;;;;20.50;16.50;;;;;5.27;79.79;100997.06;5064444;28;58630;-82
2023/12/07 07:17:28;;;;;;;;;17.00;15.00;;;;;5.31;79.29;101003.97;5078981;27;45311;-84
2023/12/07 07:19:55;;;;;;;;;18.75;17.25;;;;;5.26;79.71;101000.63;5092453;27;45283;-90
2023/12/07 07:22:22;;;;;;;;;24.00;17.00;;;;;5.30;79.70;101012.78;5087807;28;45566;-87
2023/12/07 07:24:50;;;;;;;;;15.75;15.75;;;;;5.31;79.54;101019.78;5066851;28;47215;-85
2023/12/07 07:27:16;;;;;;;;;14.75;14.75;;;;;5.30;79.73;101012.78;5083798;28;45335;-82
2023/12/07 07:29:41;;;;;;;;;15.50;15.50;;;;;5.40;79.53;101031.88;5085489;27;45359;-85
2023/12/07 07:32:07;;;;;;;;;17.75;17.50;;;;;5.36;79.36;101032.00;5090558;27;45250;-85
2023/12/07 07:34:32;;;;;;;;;25.00;18.00;;;;;5.33;78.53;101028.53;5094195;28;45314;-83
2023/12/07 07:36:59;;;;;;;;;20.00;16.50;;;;;5.25;78.88;101035.81;5090273;27;45318;-84
2023/12/07 07:39:26;;;;;;;;;19.00;17.50;;;;;5.16;79.93;101030.75;5102639;28;44591;-87
2023/12/07 07:41:51;;;;;;;;;18.50;18.50;;;;;5.19;79.19;101029.81;5097584;27;44805;-83
2023/12/07 07:44:16;;;;;;;;;14.00;14.00;;;;;5.26;79.04;101021.72;5083620;28;53384;-83
2023/12/07 07:46:46;;;;;;;;;21.25;18.25;;;;;5.29;79.44;101020.75;5093820;28;45174;-83
2023/12/07 07:49:11;;;;;;;;;14.75;14.75;;;;;5.20;78.79;101008.69;5094249;28;44685;-88
2023/12/07 07:51:38;;;;;;;;;21.25;17.00;;;;;5.28;79.17;101014.63;5087378;27;45260;-91
2023/12/07 07:54:03;;;;;;;;;22.50;15.75;;;;;5.30;79.23;101018.06;5066396;28;47982;-88
2023/12/07 07:56:29;;;;;;;;;13.50;13.50;;;;;5.28;78.65;101011.97;5085011;28;45490;-88
2023/12/07 07:58:54;;;;;;;;;19.50;18.50;;;;;5.25;78.66;101008.56;5085516;28;45308;-92
2023/12/07 08:01:22;;;;;;;;;19.25;17.75;;;;;5.25;78.58;101012.06;5090400;27;45178;-82
2023/12/07 08:03:48;;;;;;;;;13.50;13.50;;;;;5.16;78.87;100999.13;5099350;28;45207;-90
2023/12/07 08:06:13;;;;;;;;;21.50;18.00;;;;;5.29;78.79;101008.44;5086437;27;45344;-91
2023/12/07 08:08:38;;;;;;;;;18.75;16.00;;;;;5.34;78.97;100997.78;5083496;28;45343;-85
2023/12/07 08:11:05;;;;;;;;;19.50;18.50;;;;;5.41;79.16;100977.34;5080172;28;45481;-91
2023/12/07 08:13:30;;;;;;;;;21.25;16.75;;;;;5.42;78.63;100973.81;5056209;28;47133;-87
2023/12/07 08:15:55;;;;;;;;;21.25;17.50;;;;;5.45;79.09;100965.78;5064631;28;45458;-85
2023/12/07 08:18:22;;;;;;;;;23.75;21.00;;;;;5.47;77.95;100961.34;5067574;28;61331;-87
2023/12/07 08:20:47;;;;;;;;;18.00;14.75;;;;;5.55;78.52;100975.19;5083910;27;45498;-88
2023/12/07 08:23:13;;;;;;;;;16.75;15.75;;;;;5.44;78.04;100959.66;5064883;28;46939;-89
2023/12/07 08:25:40;;;;;;;;;24.75;20.00;;;;;5.52;77.52;100964.72;5093734;28;45430;-83
2023/12/07 08:28:05;;;;;;;;;25.25;22.00;;;;;5.51;77.25;100949.81;5098141;28;45247;-86
2023/12/07 08:30:31;;;;;;;;;24.00;18.75;;;;;5.45;77.43;100937.63;5098410;28;45354;-90
2023/12/07 08:32:56;;;;;;;;;19.25;15.75;;;;;5.49;77.21;100938.44;5083856;28;45975;-89
2023/12/07 08:35:23;;;;;;;;;19.25;17.25;;;;;5.54;77.00;100936.50;5089161;28;45667;-90
2023/12/07 08:37:48;;;;;;;;;19.50;18.50;;;;;5.52;77.21;100933.06;5089720;28;44770;-90
2023/12/07 08:40:15;;;;;;;;;16.75;16.75;;;;;5.56;76.49;100925.00;5068422;28;45370;-90
2023/12/07 08:42:46;;;;;;;;;23.25;21.00;;;;;5.55;76.61;100925.91;5066974;28;45464;-91
2023/12/07 08:45:14;;;;;;;;;18.00;18.00;;;;;5.55;76.75;100932.97;5074577;28;45391;-95
2023/12/07 08:48:00;;;;;;;;;18.00;18.00;;;;;5.63;75.96;100938.88;5029110;28;45763;-84
2023/12/07 08:50:26;;;;;;;;;18.00;14.00;;;;;5.60;76.43;100933.72;5025623;28;45564;-86
2023/12/07 08:52:51;;;;;;;;;14.25;13.25;;;;;5.65;76.08;100939.69;4998860;28;46851;-85
2023/12/07 08:55:16;;;;;;;;;16.25;16.25;;;;;5.69;75.73;100943.97;5029822;28;51555;-86
2023/12/07 08:57:42;;;;;;;;;20.25;18.50;;;;;5.63;75.56;100926.56;5019340;28;45392;-86
2023/12/07 09:00:08;;;;;;;;;20.75;17.00;;;;;5.73;75.62;100931.53;5001021;28;45582;-87
2023/12/07 09:02:33;;;;;;;;;21.25;17.75;;;;;5.71;75.88;100926.31;5027372;28;45587;-85
2023/12/07 09:05:00;;;;;;;;;14.25;13.25;;;;;5.77;75.66;100910.31;5036132;28;45566;-83
2023/12/07 09:07:25;;;;;;;;;14.50;12.75;;;;;5.71;75.58;100899.91;5019844;28;45532;-86
2023/12/07 09:09:51;;;;;;;;;17.00;14.75;;;;;5.75;74.72;100893.66;5022670;28;45951;-86
2023/12/07 09:12:16;;;;;;;;;18.50;14.75;;;;;5.79;75.23;100890.00;5035316;28;46299;-87
2023/12/07 09:14:42;;;;;;;;;21.50;18.00;;;;;5.88;75.29;100910.84;5042321;28;45408;-87
2023/12/07 09:17:07;;;;;;;;;18.25;17.25;;;;;5.81;75.08;100892.59;5045699;28;45966;-81
2023/12/07 09:19:33;;;;;;;;;14.50;14.50;;;;;5.91;75.08;100894.06;5045438;28;45642;-82
2023/12/07 09:21:58;;;;;;;;;13.75;13.75;;;;;6.00;73.95;100883.22;5038250;28;45452;-85
2023/12/07 09:24:24;;;;;;;;;14.75;12.25;;;;;6.08;73.83;100880.31;5027558;28;45341;-82
2023/12/07 09:26:49;;;;;;;;;24.25;18.25;;;;;6.11;73.65;100859.06;5022208;28;45797;-88
2023/12/07 09:29:15;;;;;;;;;19.00;18.25;;;;;6.11;73.67;100859.94;5019090;28;45559;-84
2023/12/07 09:31:40;;;;;;;;;15.75;13.25;;;;;6.16;72.58;100851.88;5045282;28;45695;-86
2023/12/07 09:34:05;;;;;;;;;14.50;14.50;;;;;6.20;72.85;100848.22;5078866;28;45789;-85
2023/12/07 09:36:31;;;;;;;;;17.75;17.75;;;;;6.31;72.56;100855.78;5082864;28;50886;-89
2023/12/07 09:38:56;;;;;;;;;21.00;13.75;;;;;6.37;72.00;100866.09;5085643;28;45485;-87
2023/12/07 09:41:23;;;;;;;;;16.00;16.00;;;;;6.30;72.20;100848.75;5085501;28;45434;-88
2023/12/07 09:43:50;;;;;;;;;20.50;16.75;;;;;6.38;71.31;100863.44;5086562;28;45579;-85
2023/12/07 09:46:16;;;;;;;;;19.75;17.75;;;;;6.41;71.27;100847.47;5089100;28;45368;-90
2023/12/07 09:48:45;;;;;;;;;17.25;17.25;;;;;6.42;71.17;100843.91;5072746;28;45212;-90
2023/12/07 09:51:11;;;;;;;;;21.25;19.25;;;;;6.53;71.79;100834.75;5067322;28;48222;-88
2023/12/07 09:53:39;;;;;;;;;23.75;16.50;;;;;6.65;70.58;100834.31;5085575;27;45406;-84
2023/12/07 09:56:05;;;;;;;;;15.00;14.00;;;;;6.68;70.68;100837.72;5082363;28;45396;-89
2023/12/07 09:58:31;;;;;;;;;21.25;14.75;;;;;6.65;69.72;100821.09;5086302;27;45343;-90
2023/12/07 10:01:09;;;;;;;;;18.25;16.50;;;;;6.66;69.86;100814.91;5095763;28;45236;-85
2023/12/07 10:03:41;;;;;;;;;14.00;14.00;;;;;6.56;70.46;100797.66;5051807;28;45340;-86
2023/12/07 10:06:07;;;;;;;;;16.75;15.00;;;;;6.72;69.22;100806.75;5093643;28;45415;-90
2023/12/07 10:08:37;;;;;;;;;14.25;14.25;;;;;6.71;69.46;100787.38;5085492;28;44856;-88
2023/12/07 10:11:15;;;;;;;;;18.50;15.25;;;;;6.76;69.08;100787.19;5083638;28;47338;-85
2023/12/07 10:14:00;;;;;;;;;15.50;13.50;;;;;6.73;69.23;100774.09;5098263;27;44803;-88
2023/12/07 10:16:26;;;;;;;;;15.75;11.25;;;;;6.75;68.48;100777.53;5098159;28;44853;-88
2023/12/07 10:18:51;;;;;;;;;14.75;12.75;;;;;6.59;69.00;100771.09;5082593;28;45020;-89
2023/12/07 10:21:32;;;;;;;;;15.00;13.50;;;;;6.68;68.92;100773.41;5096372;28;45856;-87
2023/12/07 10:23:57;;;;;;;;;17.50;12.75;;;;;6.68;69.39;100773.41;5073744;28;45464;-88
2023/12/07 10:26:23;;;;;;;;;12.50;9.25;;;;;6.81;69.07;100774.69;5075130;28;45530;-91
2023/12/07 10:28:53;;;;;;;;;15.75;13.00;;;;;6.84;68.03;100773.69;5073211;28;44861;-90
2023/12/07 10:31:18;;;;;;;;;14.75;13.00;;;;;6.74;68.24;100741.47;5089423;28;46146;-90
2023/12/07 10:33:48;;;;;;;;;17.25;14.00;;;;;6.74;68.25;100739.69;5084370;28;44905;-86
2023/12/07 10:36:13;;;;;;;;;14.25;10.75;;;;;6.70;67.96;100743.38;5093918;28;44863;-88
2023/12/07 10:38:41;;;;;;;;;14.00;11.00;;;;;6.81;67.97;100756.19;5072955;28;45463;-85
2023/12/07 10:41:12;;;;;;;;;10.25;10.00;;;;;6.80;67.56;100757.09;5087046;28;46404;-88
2023/12/07 10:43:42;;;;;;;;;13.75;11.75;;;;;6.74;68.36;100757.31;5084212;27;45758;-87
2023/12/07 10:46:09;;;;;;;;;14.00;11.25;;;;;6.72;68.43;100756.53;5082827;28;45336;-87
2023/12/07 10:48:35;;;;;;;;;9.25;7.50;;;;;6.69;68.02;100749.56;5084667;27;45793;-85
2023/12/07 10:51:09;;;;;;;;;12.25;10.25;;;;;6.67;67.90;100742.63;5097343;27;45959;-88
2023/12/07 10:53:43;;;;;;;;;16.00;11.75;;;;;6.59;68.22;100715.63;5100862;27;45295;-88
2023/12/07 10:56:11;;;;;;;;;6.25;3.50;;;;;6.64;67.91;100725.13;5065728;28;45407;-88
2023/12/07 10:58:38;;;;;;;;;11.50;11.50;;;;;6.74;67.80;100738.81;5087383;27;45445;-86
2023/12/07 11:01:07;;;;;;;;;16.00;12.25;;;;;6.72;67.59;100719.50;5068493;28;46892;-86
2023/12/07 11:03:33;;;;;;;;;11.75;7.00;;;;;6.82;68.07;100725.31;5081399;28;45194;-88
2023/12/07 11:06:01;;;;;;;;;18.00;14.00;;;;;6.85;67.14;100704.03;5088358;28;45461;-86
2023/12/07 11:08:41;;;;;;;;;22.00;14.00;;;;;6.62;67.86;100654.72;5091883;28;44865;-86
2023/12/07 11:11:15;;;;;;;;;15.75;12.00;;;;;6.90;67.66;100696.78;5087554;28;45658;-88
2023/12/07 11:13:52;;;;;;;;;11.50;9.75;;;;;6.89;67.49;100688.00;5086925;28;45244;-83
2023/12/07 11:16:37;;;;;;;;;15.00;15.00;;;;;6.85;66.89;100670.53;5066385;28;45371;-85